sensor_id;sensor_type;location;lat;lon;timestamp;pressure;altitude;pressure_sealevel;temperature;humidity
61035;BME280;46916;40.564;-7.958;2023-01-16T00:00:46;98258.00;;;8.39;79.22
61035;BME280;46916;40.564;-7.958;2023-01-16T00:02:47;98257.94;;;8.41;79.03
61035;BME280;46916;40.564;-7.958;2023-01-16T00:04:48;98243.75;;;8.45;79.14
61035;BME280;46916;40.564;-7.958;2023-01-16T00:06:48;98240.22;;;8.46;79.27
61035;BME280;46916;40.564;-7.958;2023-01-16T00:08:49;98243.47;;;8.50;79.16
61035;BME280;46916;40.564;-7.958;2023-01-16T00:10:50;98239.31;;;8.60;79.01
61035;BME280;46916;40.564;-7.958;2023-01-16T00:12:51;98238.84;;;8.67;79.18
61035;BME280;46916;40.564;-7.958;2023-01-16T00:14:51;98229.97;;;8.70;79.40
61035;BME280;46916;40.564;-7.958;2023-01-16T00:16:52;98232.94;;;8.78;79.03
61035;BME280;46916;40.564;-7.958;2023-01-16T00:18:53;98239.72;;;8.81;79.44
61035;BME280;46916;40.564;-7.958;2023-01-16T00:20:54;98241.00;;;8.88;79.88
61035;BME280;46916;40.564;-7.958;2023-01-16T00:22:54;98239.75;;;8.93;80.22
61035;BME280;46916;40.564;-7.958;2023-01-16T00:24:55;98233.41;;;8.98;79.94
61035;BME280;46916;40.564;-7.958;2023-01-16T00:26:56;98228.72;;;9.03;81.60
61035;BME280;46916;40.564;-7.958;2023-01-16T00:28:56;98208.47;;;9.06;81.68
61035;BME280;46916;40.564;-7.958;2023-01-16T00:30:57;98217.03;;;9.08;81.77
61035;BME280;46916;40.564;-7.958;2023-01-16T00:32:58;98206.25;;;9.13;82.62
61035;BME280;46916;40.564;-7.958;2023-01-16T00:34:58;98207.84;;;9.15;82.78
61035;BME280;46916;40.564;-7.958;2023-01-16T00:36:59;98200.72;;;9.17;82.22
61035;BME280;46916;40.564;-7.958;2023-01-16T00:39:00;98202.63;;;9.15;82.97
61035;BME280;46916;40.564;-7.958;2023-01-16T00:41:00;98195.59;;;9.16;81.83
61035;BME280;46916;40.564;-7.958;2023-01-16T00:43:01;98191.09;;;9.05;81.59
61035;BME280;46916;40.564;-7.958;2023-01-16T00:45:02;98186.38;;;8.98;81.13
61035;BME280;46916;40.564;-7.958;2023-01-16T00:47:03;98182.28;;;8.93;80.85
61035;BME280;46916;40.564;-7.958;2023-01-16T00:49:05;98179.63;;;8.81;81.17
61035;BME280;46916;40.564;-7.958;2023-01-16T00:51:05;98179.63;;;8.81;80.94
61035;BME280;46916;40.564;-7.958;2023-01-16T00:53:06;98172.19;;;8.62;82.07
61035;BME280;46916;40.564;-7.958;2023-01-16T00:55:07;98183.41;;;8.50;82.72
61035;BME280;46916;40.564;-7.958;2023-01-16T00:57:08;98178.28;;;8.48;83.26
61035;BME280;46916;40.564;-7.958;2023-01-16T00:59:09;98182.03;;;8.44;83.98
61035;BME280;46916;40.564;-7.958;2023-01-16T01:01:10;98170.84;;;8.42;84.48
61035;BME280;46916;40.564;-7.958;2023-01-16T01:03:11;98171.38;;;8.47;84.80
61035;BME280;46916;40.564;-7.958;2023-01-16T01:05:11;98160.66;;;8.52;85.21
61035;BME280;46916;40.564;-7.958;2023-01-16T01:07:12;98149.72;;;8.59;85.13
61035;BME280;46916;40.564;-7.958;2023-01-16T01:09:13;98143.34;;;8.63;85.73
61035;BME280;46916;40.564;-7.958;2023-01-16T01:11:14;98136.59;;;8.74;85.57
61035;BME280;46916;40.564;-7.958;2023-01-16T01:13:15;98123.94;;;8.80;85.78
61035;BME280;46916;40.564;-7.958;2023-01-16T01:15:16;98130.44;;;8.87;86.06
61035;BME280;46916;40.564;-7.958;2023-01-16T01:17:16;98126.28;;;8.98;85.76
61035;BME280;46916;40.564;-7.958;2023-01-16T01:19:17;98121.47;;;9.04;85.74
61035;BME280;46916;40.564;-7.958;2023-01-16T01:21:18;98121.28;;;9.07;86.91
61035;BME280;46916;40.564;-7.958;2023-01-16T01:23:19;98116.38;;;9.15;86.08
61035;BME280;46916;40.564;-7.958;2023-01-16T01:25:20;98117.00;;;9.19;86.78
61035;BME280;46916;40.564;-7.958;2023-01-16T01:27:20;98109.69;;;9.24;86.33
61035;BME280;46916;40.564;-7.958;2023-01-16T01:29:21;98106.03;;;9.27;86.26
61035;BME280;46916;40.564;-7.958;2023-01-16T01:31:22;98098.41;;;9.24;86.83
61035;BME280;46916;40.564;-7.958;2023-01-16T01:33:22;98101.00;;;9.24;86.66
61035;BME280;46916;40.564;-7.958;2023-01-16T01:35:23;98099.34;;;9.23;87.61
61035;BME280;46916;40.564;-7.958;2023-01-16T01:37:24;98092.53;;;9.20;88.41
61035;BME280;46916;40.564;-7.958;2023-01-16T01:39:25;98092.22;;;9.25;87.75
61035;BME280;46916;40.564;-7.958;2023-01-16T01:41:25;98079.03;;;9.26;88.05
61035;BME280;46916;40.564;-7.958;2023-01-16T01:43:50;98066.81;;;9.27;87.91
61035;BME280;46916;40.564;-7.958;2023-01-16T01:45:54;98060.72;;;9.26;88.23
61035;BME280;46916;40.564;-7.958;2023-01-16T01:47:57;98073.59;;;9.29;88.57
61035;BME280;46916;40.564;-7.958;2023-01-16T01:50:04;98058.88;;;9.28;88.47
61035;BME280;46916;40.564;-7.958;2023-01-16T01:52:13;98049.88;;;9.32;88.42
61035;BME280;46916;40.564;-7.958;2023-01-16T01:54:21;98049.03;;;9.32;88.83
61035;BME280;46916;40.564;-7.958;2023-01-16T01:56:30;98046.22;;;9.35;88.97
61035;BME280;46916;40.564;-7.958;2023-01-16T01:58:33;98049.03;;;9.32;89.19
61035;BME280;46916;40.564;-7.958;2023-01-16T02:00:34;98044.75;;;9.31;89.54
61035;BME280;46916;40.564;-7.958;2023-01-16T02:02:38;98047.13;;;9.34;89.92
61035;BME280;46916;40.564;-7.958;2023-01-16T02:04:42;98051.94;;;9.40;88.80
61035;BME280;46916;40.564;-7.958;2023-01-16T02:06:57;98041.38;;;9.41;89.31
61035;BME280;46916;40.564;-7.958;2023-01-16T02:08:58;98025.91;;;9.38;89.21
61035;BME280;46916;40.564;-7.958;2023-01-16T02:11:10;98039.72;;;9.40;89.61
61035;BME280;46916;40.564;-7.958;2023-01-16T02:13:25;98037.09;;;9.40;89.99
61035;BME280;46916;40.564;-7.958;2023-01-16T02:15:27;98029.38;;;9.39;90.31
61035;BME280;46916;40.564;-7.958;2023-01-16T02:17:28;98036.59;;;9.35;91.07
61035;BME280;46916;40.564;-7.958;2023-01-16T02:31:29;98009.53;;;9.24;91.73
61035;BME280;46916;40.564;-7.958;2023-01-16T02:45:41;97983.13;;;9.03;91.97
61035;BME280;46916;40.564;-7.958;2023-01-16T02:47:50;97967.66;;;9.00;92.59
61035;BME280;46916;40.564;-7.958;2023-01-16T02:50:21;97966.81;;;8.99;92.70
61035;BME280;46916;40.564;-7.958;2023-01-16T02:52:26;97952.28;;;8.95;93.77
61035;BME280;46916;40.564;-7.958;2023-01-16T02:54:40;97953.97;;;8.96;95.32
61035;BME280;46916;40.564;-7.958;2023-01-16T02:56:46;97945.09;;;8.99;95.54
61035;BME280;46916;40.564;-7.958;2023-01-16T02:58:49;97936.09;;;9.03;95.59
61035;BME280;46916;40.564;-7.958;2023-01-16T03:00:53;97930.53;;;9.07;95.34
61035;BME280;46916;40.564;-7.958;2023-01-16T03:02:55;97934.59;;;9.11;95.78
61035;BME280;46916;40.564;-7.958;2023-01-16T03:04:56;97940.53;;;9.13;96.03
61035;BME280;46916;40.564;-7.958;2023-01-16T03:11:24;97938.97;;;9.24;95.45
61035;BME280;46916;40.564;-7.958;2023-01-16T03:23:13;97916.44;;;9.34;97.06
61035;BME280;46916;40.564;-7.958;2023-01-16T03:25:28;97918.50;;;9.41;96.96
61035;BME280;46916;40.564;-7.958;2023-01-16T03:27:49;97904.16;;;9.47;96.14
61035;BME280;46916;40.564;-7.958;2023-01-16T03:30:14;97911.06;;;9.48;96.56
61035;BME280;46916;40.564;-7.958;2023-01-16T03:33:24;97888.97;;;9.52;96.42
61035;BME280;46916;40.564;-7.958;2023-01-16T03:35:25;97884.56;;;9.53;96.56
61035;BME280;46916;40.564;-7.958;2023-01-16T03:37:33;97869.00;;;9.51;96.18
61035;BME280;46916;40.564;-7.958;2023-01-16T03:39:53;97870.66;;;9.52;96.28
61035;BME280;46916;40.564;-7.958;2023-01-16T03:42:00;97864.59;;;9.52;96.97
61035;BME280;46916;40.564;-7.958;2023-01-16T03:44:08;97851.41;;;9.53;96.26
61035;BME280;46916;40.564;-7.958;2023-01-16T03:46:15;97849.75;;;9.52;96.60
61035;BME280;46916;40.564;-7.958;2023-01-16T03:48:22;97836.78;;;9.51;97.60
61035;BME280;46916;40.564;-7.958;2023-01-16T03:50:26;97833.94;;;9.54;97.01
61035;BME280;46916;40.564;-7.958;2023-01-16T03:52:32;97832.06;;;9.56;96.96
61035;BME280;46916;40.564;-7.958;2023-01-16T03:59:12;97812.66;;;9.58;98.37
61035;BME280;46916;40.564;-7.958;2023-01-16T04:01:32;97828.28;;;9.60;98.40
61035;BME280;46916;40.564;-7.958;2023-01-16T04:03:42;97824.56;;;9.62;99.80
61035;BME280;46916;40.564;-7.958;2023-01-16T04:05:49;97833.03;;;9.66;99.98
61035;BME280;46916;40.564;-7.958;2023-01-16T04:07:56;97832.06;;;9.67;100.00
61035;BME280;46916;40.564;-7.958;2023-01-16T04:10:00;97848.97;;;9.74;99.59
61035;BME280;46916;40.564;-7.958;2023-01-16T04:12:02;97832.06;;;9.67;100.00
61035;BME280;46916;40.564;-7.958;2023-01-16T04:14:05;97819.13;;;9.65;100.00
61035;BME280;46916;40.564;-7.958;2023-01-16T04:16:09;97829.81;;;9.62;100.00
61035;BME280;46916;40.564;-7.958;2023-01-16T04:18:11;97822.78;;;9.63;100.00
61035;BME280;46916;40.564;-7.958;2023-01-16T04:20:12;97835.88;;;9.63;100.00
61035;BME280;46916;40.564;-7.958;2023-01-16T04:22:21;97830.88;;;9.60;100.00
61035;BME280;46916;40.564;-7.958;2023-01-16T04:24:22;97834.09;;;9.63;100.00
61035;BME280;46916;40.564;-7.958;2023-01-16T04:26:23;97822.69;;;9.64;100.00
61035;BME280;46916;40.564;-7.958;2023-01-16T04:28:24;97808.66;;;9.65;100.00
61035;BME280;46916;40.564;-7.958;2023-01-16T04:30:24;97802.47;;;9.66;100.00
61035;BME280;46916;40.564;-7.958;2023-01-16T04:32:25;97805.91;;;9.67;100.00
61035;BME280;46916;40.564;-7.958;2023-01-16T04:34:25;97798.81;;;9.69;100.00
61035;BME280;46916;40.564;-7.958;2023-01-16T04:36:26;97806.53;;;9.71;100.00
61035;BME280;46916;40.564;-7.958;2023-01-16T04:38:27;97812.38;;;9.74;100.00
61035;BME280;46916;40.564;-7.958;2023-01-16T04:40:28;97804.41;;;9.76;100.00
61035;BME280;46916;40.564;-7.958;2023-01-16T04:42:28;97799.75;;;9.79;100.00
61035;BME280;46916;40.564;-7.958;2023-01-16T04:44:29;97802.28;;;9.81;100.00
61035;BME280;46916;40.564;-7.958;2023-01-16T04:46:30;97807.50;;;9.81;100.00
61035;BME280;46916;40.564;-7.958;2023-01-16T04:48:31;97785.75;;;9.80;100.00
61035;BME280;46916;40.564;-7.958;2023-01-16T04:50:31;97788.38;;;9.80;100.00
61035;BME280;46916;40.564;-7.958;2023-01-16T04:52:32;97798.84;;;9.80;100.00
61035;BME280;46916;40.564;-7.958;2023-01-16T04:54:33;97797.88;;;9.81;100.00
61035;BME280;46916;40.564;-7.958;2023-01-16T04:56:34;97791.69;;;9.82;100.00
61035;BME280;46916;40.564;-7.958;2023-01-16T04:58:36;97789.69;;;9.86;100.00
61035;BME280;46916;40.564;-7.958;2023-01-16T05:00:36;97799.19;;;9.87;100.00
61035;BME280;46916;40.564;-7.958;2023-01-16T05:02:37;97789.69;;;9.86;100.00
61035;BME280;46916;40.564;-7.958;2023-01-16T05:04:38;97786.22;;;9.85;100.00
61035;BME280;46916;40.564;-7.958;2023-01-16T05:06:38;97779.22;;;9.86;100.00
61035;BME280;46916;40.564;-7.958;2023-01-16T05:08:39;97797.53;;;9.86;100.00
61035;BME280;46916;40.564;-7.958;2023-01-16T05:10:40;97792.28;;;9.86;100.00
61035;BME280;46916;40.564;-7.958;2023-01-16T05:12:40;97792.91;;;9.89;100.00
61035;BME280;46916;40.564;-7.958;2023-01-16T05:14:41;97795.88;;;9.85;100.00
61035;BME280;46916;40.564;-7.958;2023-01-16T05:16:42;97797.28;;;9.78;100.00
61035;BME280;46916;40.564;-7.958;2023-01-16T05:18:42;97813.19;;;9.75;100.00
61035;BME280;46916;40.564;-7.958;2023-01-16T05:20:43;97798.47;;;9.74;100.00
61035;BME280;46916;40.564;-7.958;2023-01-16T05:22:44;97808.53;;;9.67;100.00
61035;BME280;46916;40.564;-7.958;2023-01-16T05:24:44;97808.88;;;9.62;100.00
61035;BME280;46916;40.564;-7.958;2023-01-16T05:26:45;97792.50;;;9.60;100.00
61035;BME280;46916;40.564;-7.958;2023-01-16T05:28:46;97806.63;;;9.58;100.00
61035;BME280;46916;40.564;-7.958;2023-01-16T05:30:48;97798.78;;;9.58;100.00
61035;BME280;46916;40.564;-7.958;2023-01-16T05:32:48;97801.84;;;9.52;100.00
61035;BME280;46916;40.564;-7.958;2023-01-16T05:34:49;97802.91;;;9.49;100.00
61035;BME280;46916;40.564;-7.958;2023-01-16T05:36:50;97800.41;;;9.48;100.00
61035;BME280;46916;40.564;-7.958;2023-01-16T05:38:50;97795.28;;;9.46;100.00
61035;BME280;46916;40.564;-7.958;2023-01-16T05:40:51;97781.28;;;9.47;100.00
61035;BME280;46916;40.564;-7.958;2023-01-16T05:42:52;97774.28;;;9.48;100.00
61035;BME280;46916;40.564;-7.958;2023-01-16T05:44:52;97770.69;;;9.49;100.00
61035;BME280;46916;40.564;-7.958;2023-01-16T05:46:53;97773.44;;;9.47;100.00
61035;BME280;46916;40.564;-7.958;2023-01-16T05:48:54;97772.84;;;9.43;100.00
61035;BME280;46916;40.564;-7.958;2023-01-16T05:50:54;97774.38;;;9.46;100.00
61035;BME280;46916;40.564;-7.958;2023-01-16T05:52:55;97776.16;;;9.46;100.00
61035;BME280;46916;40.564;-7.958;2023-01-16T05:54:56;97785.06;;;9.43;100.00
61035;BME280;46916;40.564;-7.958;2023-01-16T05:56:57;97780.69;;;9.43;100.00
61035;BME280;46916;40.564;-7.958;2023-01-16T05:58:57;97767.47;;;9.45;100.00
61035;BME280;46916;40.564;-7.958;2023-01-16T06:00:58;97777.94;;;9.45;100.00
61035;BME280;46916;40.564;-7.958;2023-01-16T06:02:58;97769.38;;;9.43;100.00
61035;BME280;46916;40.564;-7.958;2023-01-16T06:04:59;97771.13;;;9.42;100.00
61035;BME280;46916;40.564;-7.958;2023-01-16T06:07:00;97759.03;;;9.41;100.00
61035;BME280;46916;40.564;-7.958;2023-01-16T06:09:01;97760.81;;;9.41;100.00
61035;BME280;46916;40.564;-7.958;2023-01-16T06:11:01;97764.38;;;9.40;100.00
61035;BME280;46916;40.564;-7.958;2023-01-16T06:13:02;97765.34;;;9.39;100.00
61035;BME280;46916;40.564;-7.958;2023-01-16T06:15:04;97776.00;;;9.36;100.00
61035;BME280;46916;40.564;-7.958;2023-01-16T06:17:04;97761.50;;;9.32;100.00
61035;BME280;46916;40.564;-7.958;2023-01-16T06:19:05;97756.97;;;9.34;100.00
61035;BME280;46916;40.564;-7.958;2023-01-16T06:21:06;97752.56;;;9.34;100.00
61035;BME280;46916;40.564;-7.958;2023-01-16T06:23:06;97762.59;;;9.40;100.00
61035;BME280;46916;40.564;-7.958;2023-01-16T06:25:07;97767.81;;;9.40;100.00
61035;BME280;46916;40.564;-7.958;2023-01-16T06:27:08;97764.03;;;9.45;100.00
61035;BME280;46916;40.564;-7.958;2023-01-16T06:29:09;97752.00;;;9.42;100.00
61035;BME280;46916;40.564;-7.958;2023-01-16T06:31:10;97758.94;;;9.43;100.00
61035;BME280;46916;40.564;-7.958;2023-01-16T06:33:11;97759.84;;;9.42;100.00
61035;BME280;46916;40.564;-7.958;2023-01-16T06:35:11;97772.00;;;9.43;100.00
61035;BME280;46916;40.564;-7.958;2023-01-16T06:37:12;97766.88;;;9.41;100.00
61035;BME280;46916;40.564;-7.958;2023-01-16T06:39:14;97769.59;;;9.40;100.00
61035;BME280;46916;40.564;-7.958;2023-01-16T06:41:15;97759.16;;;9.40;100.00
61035;BME280;46916;40.564;-7.958;2023-01-16T06:43:15;97757.50;;;9.39;100.00
61035;BME280;46916;40.564;-7.958;2023-01-16T06:45:16;97757.50;;;9.39;100.00
61035;BME280;46916;40.564;-7.958;2023-01-16T06:47:22;97761.97;;;9.37;100.00
61035;BME280;46916;40.564;-7.958;2023-01-16T06:49:23;97762.72;;;9.39;100.00
61035;BME280;46916;40.564;-7.958;2023-01-16T06:51:23;97773.06;;;9.40;100.00
61035;BME280;46916;40.564;-7.958;2023-01-16T06:53:24;97769.47;;;9.41;100.00
61035;BME280;46916;40.564;-7.958;2023-01-16T06:55:26;97759.97;;;9.40;100.00
61035;BME280;46916;40.564;-7.958;2023-01-16T06:57:26;97759.84;;;9.42;100.00
61035;BME280;46916;40.564;-7.958;2023-01-16T06:59:27;97752.84;;;9.42;100.00
61035;BME280;46916;40.564;-7.958;2023-01-16T07:01:28;97752.84;;;9.42;100.00
61035;BME280;46916;40.564;-7.958;2023-01-16T07:03:28;97750.22;;;9.42;100.00
61035;BME280;46916;40.564;-7.958;2023-01-16T07:05:30;97753.78;;;9.41;100.00
61035;BME280;46916;40.564;-7.958;2023-01-16T07:07:31;97761.63;;;9.41;100.00
61035;BME280;46916;40.564;-7.958;2023-01-16T07:09:31;97752.84;;;9.42;100.00
61035;BME280;46916;40.564;-7.958;2023-01-16T07:11:32;97745.84;;;9.43;100.00
61035;BME280;46916;40.564;-7.958;2023-01-16T07:13:33;97751.09;;;9.43;100.00
61035;BME280;46916;40.564;-7.958;2023-01-16T07:15:34;97746.78;;;9.42;100.00
61035;BME280;46916;40.564;-7.958;2023-01-16T07:17:53;97750.22;;;9.42;100.00
61035;BME280;46916;40.564;-7.958;2023-01-16T07:20:15;97743.47;;;9.40;100.00
61035;BME280;46916;40.564;-7.958;2023-01-16T07:22:34;97756.53;;;9.40;100.00
61035;BME280;46916;40.564;-7.958;2023-01-16T07:24:37;97752.97;;;9.41;100.00
61035;BME280;46916;40.564;-7.958;2023-01-16T07:26:43;97758.19;;;9.41;100.00
61035;BME280;46916;40.564;-7.958;2023-01-16T07:28:46;97748.69;;;9.40;100.00
61035;BME280;46916;40.564;-7.958;2023-01-16T07:30:48;97742.50;;;9.41;100.00
61035;BME280;46916;40.564;-7.958;2023-01-16T07:32:49;97736.44;;;9.40;100.00
61035;BME280;46916;40.564;-7.958;2023-01-16T07:34:50;97715.66;;;9.39;100.00
61035;BME280;46916;40.564;-7.958;2023-01-16T07:36:51;97714.72;;;9.40;100.00
61035;BME280;46916;40.564;-7.958;2023-01-16T07:38:52;97701.50;;;9.41;100.00
61035;BME280;46916;40.564;-7.958;2023-01-16T07:40:52;97701.50;;;9.41;100.00
61035;BME280;46916;40.564;-7.958;2023-01-16T07:42:53;97706.88;;;9.40;100.00
61035;BME280;46916;40.564;-7.958;2023-01-16T07:44:55;97711.25;;;9.39;100.00
61035;BME280;46916;40.564;-7.958;2023-01-16T07:46:56;97711.13;;;9.41;100.00
61035;BME280;46916;40.564;-7.958;2023-01-16T07:48:57;97718.84;;;9.42;100.00
61035;BME280;46916;40.564;-7.958;2023-01-16T07:50:58;97708.41;;;9.42;100.00
61035;BME280;46916;40.564;-7.958;2023-01-16T07:52:59;97707.47;;;9.43;100.00
61035;BME280;46916;40.564;-7.958;2023-01-16T07:55:00;97710.91;;;9.44;100.00
61035;BME280;46916;40.564;-7.958;2023-01-16T07:57:01;97722.19;;;9.45;100.00
61035;BME280;46916;40.564;-7.958;2023-01-16T07:59:02;97729.09;;;9.46;100.00
61035;BME280;46916;40.564;-7.958;2023-01-16T08:01:02;97729.81;;;9.48;100.00
61035;BME280;46916;40.564;-7.958;2023-01-16T08:03:04;97730.66;;;9.48;100.00
61035;BME280;46916;40.564;-7.958;2023-01-16T08:05:05;97734.22;;;9.47;100.00
61035;BME280;46916;40.564;-7.958;2023-01-16T08:07:06;97739.44;;;9.47;100.00
61035;BME280;46916;40.564;-7.958;2023-01-16T08:09:07;97743.13;;;9.45;100.00
61035;BME280;46916;40.564;-7.958;2023-01-16T08:11:08;97740.63;;;9.43;100.00
61035;BME280;46916;40.564;-7.958;2023-01-16T08:13:27;97736.31;;;9.42;100.00
61035;BME280;46916;40.564;-7.958;2023-01-16T08:15:41;97727.88;;;9.38;100.00
61035;BME280;46916;40.564;-7.958;2023-01-16T08:17:41;97733.34;;;9.35;100.00
61035;BME280;46916;40.564;-7.958;2023-01-16T08:19:42;97725.50;;;9.35;100.00
61035;BME280;46916;40.564;-7.958;2023-01-16T08:21:43;97717.06;;;9.32;100.00
61035;BME280;46916;40.564;-7.958;2023-01-16T08:23:43;97723.25;;;9.31;100.00
61035;BME280;46916;40.564;-7.958;2023-01-16T08:25:44;97723.00;;;9.34;100.00
61035;BME280;46916;40.564;-7.958;2023-01-16T08:27:49;97717.78;;;9.34;100.00
61035;BME280;46916;40.564;-7.958;2023-01-16T08:29:50;97719.47;;;9.35;100.00
61035;BME280;46916;40.564;-7.958;2023-01-16T08:31:51;97721.13;;;9.36;100.00
61035;BME280;46916;40.564;-7.958;2023-01-16T08:33:51;97724.69;;;9.35;100.00
61035;BME280;46916;40.564;-7.958;2023-01-16T08:35:52;97717.31;;;9.40;100.00
61035;BME280;46916;40.564;-7.958;2023-01-16T08:37:52;97722.44;;;9.41;100.00
61035;BME280;46916;40.564;-7.958;2023-01-16T08:39:53;97730.88;;;9.45;100.00
61035;BME280;46916;40.564;-7.958;2023-01-16T08:41:54;97739.19;;;9.50;100.00
61035;BME280;46916;40.564;-7.958;2023-01-16T08:44:13;97741.81;;;9.50;100.00
61035;BME280;46916;40.564;-7.958;2023-01-16T08:46:32;97743.38;;;9.53;100.00
61035;BME280;46916;40.564;-7.958;2023-01-16T08:48:52;97730.31;;;9.53;100.00
61035;BME280;46916;40.564;-7.958;2023-01-16T08:51:16;97720.66;;;9.53;100.00
61035;BME280;46916;40.564;-7.958;2023-01-16T08:53:25;97712.69;;;9.55;100.00
61035;BME280;46916;40.564;-7.958;2023-01-16T08:55:25;97721.16;;;9.58;100.00
61035;BME280;46916;40.564;-7.958;2023-01-16T08:57:27;97718.44;;;9.60;100.00
61035;BME280;46916;40.564;-7.958;2023-01-16T08:59:28;97728.75;;;9.61;100.00
61035;BME280;46916;40.564;-7.958;2023-01-16T09:01:33;97725.31;;;9.61;100.00
61035;BME280;46916;40.564;-7.958;2023-01-16T09:03:34;97719.13;;;9.62;100.00
61035;BME280;46916;40.564;-7.958;2023-01-16T09:05:35;97726.88;;;9.63;100.00
61035;BME280;46916;40.564;-7.958;2023-01-16T09:07:36;97728.53;;;9.64;100.00
61035;BME280;46916;40.564;-7.958;2023-01-16T09:09:40;97718.91;;;9.65;100.00
61035;BME280;46916;40.564;-7.958;2023-01-16T09:11:41;97734.38;;;9.68;100.00
61035;BME280;46916;40.564;-7.958;2023-01-16T09:14:01;97738.44;;;9.72;100.00
61035;BME280;46916;40.564;-7.958;2023-01-16T09:16:02;97735.69;;;9.74;100.00
61035;BME280;46916;40.564;-7.958;2023-01-16T09:18:03;97747.19;;;9.71;100.00
61035;BME280;46916;40.564;-7.958;2023-01-16T09:20:04;97735.69;;;9.74;100.00
61035;BME280;46916;40.564;-7.958;2023-01-16T09:22:05;97742.34;;;9.78;100.00
61035;BME280;46916;40.564;-7.958;2023-01-16T09:24:06;97738.66;;;9.80;100.00
61035;BME280;46916;40.564;-7.958;2023-01-16T09:26:08;97743.66;;;9.83;100.00
61035;BME280;46916;40.564;-7.958;2023-01-16T09:28:08;97732.25;;;9.84;100.00
61035;BME280;46916;40.564;-7.958;2023-01-16T09:30:09;97737.34;;;9.86;100.00
61035;BME280;46916;40.564;-7.958;2023-01-16T09:32:10;97727.72;;;9.86;100.00
61035;BME280;46916;40.564;-7.958;2023-01-16T09:34:11;97725.22;;;9.85;100.00
61035;BME280;46916;40.564;-7.958;2023-01-16T09:36:12;97713.69;;;9.87;100.00
61035;BME280;46916;40.564;-7.958;2023-01-16T09:38:13;97715.00;;;9.93;100.00
61035;BME280;46916;40.564;-7.958;2023-01-16T09:40:17;97713.22;;;9.93;100.00
61035;BME280;46916;40.564;-7.958;2023-01-16T09:45:06;97715.97;;;9.92;100.00
61035;BME280;46916;40.564;-7.958;2023-01-16T09:47:08;97724.66;;;9.92;100.00
61035;BME280;46916;40.564;-7.958;2023-01-16T09:51:35;97742.38;;;9.89;100.00
61035;BME280;46916;40.564;-7.958;2023-01-16T09:53:43;97740.81;;;9.86;100.00
61035;BME280;46916;40.564;-7.958;2023-01-16T09:56:04;97732.97;;;9.86;100.00
61035;BME280;46916;40.564;-7.958;2023-01-16T09:58:24;97748.78;;;9.85;100.00
61035;BME280;46916;40.564;-7.958;2023-01-16T10:00:37;97730.69;;;9.82;100.00
61035;BME280;46916;40.564;-7.958;2023-01-16T10:02:38;97727.38;;;9.80;100.00
61035;BME280;46916;40.564;-7.958;2023-01-16T10:04:39;97733.53;;;9.79;100.00
61035;BME280;46916;40.564;-7.958;2023-01-16T10:17:51;97683.22;;;10.54;100.00
61035;BME280;46916;40.564;-7.958;2023-01-16T10:22:05;97689.34;;;10.96;100.00
61035;BME280;46916;40.564;-7.958;2023-01-16T10:26:34;97672.66;;;10.97;100.00
61035;BME280;46916;40.564;-7.958;2023-01-16T10:31:18;97670.44;;;11.13;100.00
61035;BME280;46916;40.564;-7.958;2023-01-16T10:33:42;97668.59;;;11.25;100.00
61035;BME280;46916;40.564;-7.958;2023-01-16T10:35:48;97663.25;;;11.27;100.00
61035;BME280;46916;40.564;-7.958;2023-01-16T10:37:50;97666.56;;;11.29;100.00
61035;BME280;46916;40.564;-7.958;2023-01-16T10:39:51;97672.75;;;11.28;100.00
61035;BME280;46916;40.564;-7.958;2023-01-16T10:42:08;97670.63;;;11.22;100.00
61035;BME280;46916;40.564;-7.958;2023-01-16T10:44:35;97682.84;;;11.11;100.00
61035;BME280;46916;40.564;-7.958;2023-01-16T10:46:54;97694.13;;;11.02;100.00
61035;BME280;46916;40.564;-7.958;2023-01-16T10:49:15;97697.72;;;10.90;100.00
61035;BME280;46916;40.564;-7.958;2023-01-16T10:51:28;97699.88;;;10.85;100.00
61035;BME280;46916;40.564;-7.958;2023-01-16T10:53:30;97692.78;;;10.76;100.00
61035;BME280;46916;40.564;-7.958;2023-01-16T10:55:33;97687.91;;;10.71;100.00
61035;BME280;46916;40.564;-7.958;2023-01-16T10:57:45;97692.78;;;10.64;100.00
61035;BME280;46916;40.564;-7.958;2023-01-16T10:59:51;97692.94;;;10.63;100.00
61035;BME280;46916;40.564;-7.958;2023-01-16T11:01:56;97677.47;;;10.60;100.00
61035;BME280;46916;40.564;-7.958;2023-01-16T11:03:59;97669.59;;;10.60;100.00
61035;BME280;46916;40.564;-7.958;2023-01-16T11:06:18;97661.06;;;10.58;100.00
61035;BME280;46916;40.564;-7.958;2023-01-16T11:08:19;97667.34;;;10.55;100.00
61035;BME280;46916;40.564;-7.958;2023-01-16T11:10:23;97657.72;;;10.56;100.00
61035;BME280;46916;40.564;-7.958;2023-01-16T11:12:25;97655.91;;;10.56;100.00
61035;BME280;46916;40.564;-7.958;2023-01-16T11:14:45;97657.72;;;10.56;100.00
61035;BME280;46916;40.564;-7.958;2023-01-16T11:17:34;97645.34;;;10.58;100.00
61035;BME280;46916;40.564;-7.958;2023-01-16T11:19:54;97634.97;;;10.56;100.00
61035;BME280;46916;40.564;-7.958;2023-01-16T11:21:59;97628.78;;;10.57;100.00
61035;BME280;46916;40.564;-7.958;2023-01-16T11:26:16;97612.44;;;10.65;100.00
61035;BME280;46916;40.564;-7.958;2023-01-16T11:28:25;97607.59;;;10.81;100.00
61035;BME280;46916;40.564;-7.958;2023-01-16T11:30:31;97607.53;;;10.93;100.00
61035;BME280;46916;40.564;-7.958;2023-01-16T11:32:35;97605.09;;;11.01;100.00
61035;BME280;46916;40.564;-7.958;2023-01-16T11:34:44;97607.34;;;11.05;100.00
61035;BME280;46916;40.564;-7.958;2023-01-16T11:36:45;97605.44;;;11.07;100.00
61035;BME280;46916;40.564;-7.958;2023-01-16T11:38:47;97602.56;;;11.10;100.00
61035;BME280;46916;40.564;-7.958;2023-01-16T11:40:50;97598.00;;;11.12;100.00
61035;BME280;46916;40.564;-7.958;2023-01-16T11:42:56;97611.25;;;11.11;100.00
61035;BME280;46916;40.564;-7.958;2023-01-16T11:45:19;97619.50;;;11.06;100.00
61035;BME280;46916;40.564;-7.958;2023-01-16T11:47:43;97604.13;;;11.02;100.00
61035;BME280;46916;40.564;-7.958;2023-01-16T11:49:46;97604.66;;;10.96;100.00
61035;BME280;46916;40.564;-7.958;2023-01-16T11:51:51;97599.69;;;10.93;100.00
61035;BME280;46916;40.564;-7.958;2023-01-16T11:53:54;97580.75;;;10.89;100.00
61035;BME280;46916;40.564;-7.958;2023-01-16T11:58:19;97552.22;;;10.86;100.00
61035;BME280;46916;40.564;-7.958;2023-01-16T12:01:00;97546.97;;;10.86;100.00
61035;BME280;46916;40.564;-7.958;2023-01-16T12:03:49;97551.00;;;10.90;100.00